Flood From: 19-02-2018 06:00 Until: 20-02-2018 06:00 warning for: Flood Level: Yellow info button

Although rather usual in this region, locally or potentially dangerous phenomena are expected. (such as local winds, summer thunderstorms, rising streams or high waves) Be aware and pay attention to the latest weather updates, especially if you carry out activities exposed to weather or close to a stream or shoreline. 


Meteo18 Weather Cam more information Meteo18 Weather Cam


Thunder radar more information blitzortung!


Rain radar more information rain snow radar


Visit our other weather sites:

Template documentation
and downloads

And another site



Weather Underground History page Text

Daily Summary for December 8, 2017 Units:  Metric    English   Both
« Previous Day
Next Day »
Daily Weekly Monthly Yearly Custom
  High: Low: Average:
Temperature: -17.8 °C -17.3 °C -15.6 °C
Dew Point: -17.8 °C -18.1 °C -16.6 °C
Humidity: Humidity % 71 % 88 %
Wind Speed: 0 km/h 0 km/h 15.4 km/h
Wind Gust: 0 km/h - -
Wind:- - WNW
Pressure: 0 hPa 34428.8 hPa -
Precipitation: 33.02 mm    
Historical Graphs
 
 
Tabular Data for December 8, 2017
Time Temperature Dew Point Pressure Wind Wind Speed Wind Gust Humidity Rainfall Rate (Hourly)
-17.8 °C -17.8 °C 0 hPa Calm     Humidity % 0 mm
00:02 -13.9 °C -14.2 °C 34442.4 hPa WSW 15.6 km/h 31.1 km/h 97 % 20.32 mm
00:12 -13.8 °C -14.1 °C 34442.4 hPa WSW 23.3 km/h 33.6 km/h 97 % 25.4 mm
00:17 -13.8 °C -14 °C 34428.8 hPa WSW 28.5 km/h 38.8 km/h 97 % 25.4 mm
00:42 -13.6 °C -13.8 °C 34428.8 hPa WSW 10.3 km/h 41.4 km/h 97 % 25.4 mm
00:52 -13.6 °C -13.8 °C 34428.8 hPa West 15.6 km/h 33.6 km/h 97 % 20.32 mm
00:57 -13.6 °C -13.8 °C 34428.8 hPa West 12.9 km/h 28.5 km/h 97 % 20.32 mm
01:02 -13.6 °C -13.8 °C 34442.4 hPa West 10.3 km/h 33.6 km/h 97 % 12.7 mm
01:07 -13.6 °C -13.8 °C 34428.8 hPa West 15.6 km/h 33.6 km/h 97 % 7.62 mm
01:17 -13.6 °C -13.8 °C 34428.8 hPa West 18.2 km/h 31.1 km/h 97 % 7.62 mm
01:22 -13.6 °C -13.9 °C 34428.8 hPa West 5.1 km/h 31.1 km/h 96 % 0 mm
01:27 -13.5 °C -13.8 °C 34428.8 hPa NNW 23.3 km/h 31.1 km/h 96 % 0 mm
01:47 -13.7 °C -14.1 °C 34442.4 hPa NNW 7.7 km/h 18.2 km/h 95 % 0 mm
01:57 -13.8 °C -14.4 °C 34452.6 hPa WNW 10.3 km/h 25.9 km/h 93 % 0 mm
02:02 -13.8 °C -14.4 °C 34452.6 hPa NNW 15.6 km/h 31.1 km/h 93 % 0 mm
02:07 -13.9 °C -14.5 °C 34452.6 hPa North 12.9 km/h 31.1 km/h 93 % 0 mm
02:12 -13.9 °C -14.6 °C 34452.6 hPa NNW 7.7 km/h 28.5 km/h 92 % 0 mm
02:22 -13.9 °C -14.6 °C 34452.6 hPa West 2.6 km/h 18.2 km/h 92 % 0 mm
02:27 -14 °C -14.7 °C 34452.6 hPa WNW 5.1 km/h 18.2 km/h 92 % 0 mm
02:42 -14 °C -14.7 °C 34462.7 hPa Calm   10.3 km/h 92 % 0 mm
02:47 -14.1 °C -14.7 °C 34462.7 hPa Calm   12.9 km/h 92 % 0 mm
02:57 -14.1 °C -14.8 °C 34462.7 hPa Calm   10.3 km/h 91 % 0 mm
03:02 -14.1 °C -14.8 °C 34462.7 hPa WNW 5.1 km/h 10.3 km/h 91 % 0 mm
03:22 -14.2 °C -15 °C 34476.3 hPa WNW 7.7 km/h 18.2 km/h 91 % 0 mm
04:02 -14.7 °C -15.4 °C 34486.4 hPa WNW 7.7 km/h 20.8 km/h 92 % 0 mm
04:07 -14.7 °C -15.4 °C 34486.4 hPa WNW 12.9 km/h 20.8 km/h 92 % 0 mm
04:17 -14.8 °C -15.4 °C 34496.6 hPa WNW 5.1 km/h 23.3 km/h 92 % 0 mm
04:27 -14.8 °C -15.5 °C 34496.6 hPa West 5.1 km/h 18.2 km/h 92 % 0 mm
04:37 -14.8 °C -15.5 °C 34496.6 hPa WNW 20.8 km/h 20.8 km/h 92 % 0 mm
04:42 -14.8 °C -15.5 °C 34496.6 hPa West 7.7 km/h 23.3 km/h 92 % 0 mm
04:52 -14.9 °C -15.6 °C 34496.6 hPa WNW 5.1 km/h 23.3 km/h 92 % 0 mm
04:57 -14.9 °C -15.6 °C 34496.6 hPa WSW 5.1 km/h 15.6 km/h 92 % 0 mm
05:02 -15 °C -15.7 °C 34496.6 hPa WNW 7.7 km/h 15.6 km/h 91 % 0 mm
05:12 -15.1 °C -15.8 °C 34496.6 hPa WNW 5.1 km/h 12.9 km/h 91 % 0 mm
05:17 -15.2 °C -15.8 °C 34496.6 hPa West 7.7 km/h 12.9 km/h 92 % 0 mm
05:32 -15.4 °C -16.1 °C 34510.1 hPa West 5.1 km/h 12.9 km/h 92 % 0 mm
05:42 -15.5 °C -16.1 °C 34510.1 hPa West 7.7 km/h 12.9 km/h 93 % 0 mm
05:47 -15.5 °C -16.1 °C 34510.1 hPa WNW 10.3 km/h 15.6 km/h 93 % 0 mm
05:52 -15.5 °C -16.1 °C 34510.1 hPa West 5.1 km/h 23.3 km/h 93 % 0 mm
05:57 -15.5 °C -16.1 °C 34510.1 hPa West 5.1 km/h 23.3 km/h 93 % 0 mm
06:02 -15.5 °C -16.1 °C 34510.1 hPa West 2.6 km/h 23.3 km/h 93 % 0 mm
06:12 -15.6 °C -16.2 °C 34510.1 hPa West 15.6 km/h 15.6 km/h 93 % 0 mm
06:17 -15.6 °C -16.2 °C 34510.1 hPa WNW 2.6 km/h 15.6 km/h 93 % 0 mm
06:27 -15.7 °C -16.2 °C 34510.1 hPa West 5.1 km/h 20.8 km/h 93 % 0 mm
06:32 -15.7 °C -16.2 °C 34510.1 hPa West 5.1 km/h 15.6 km/h 93 % 0 mm
06:42 -15.7 °C -16.2 °C 34510.1 hPa West 10.3 km/h 15.6 km/h 94 % 0 mm
06:47 -15.7 °C -16.2 °C 34510.1 hPa West 5.1 km/h 15.6 km/h 94 % 0 mm
06:57 -15.6 °C -16.1 °C 34510.1 hPa West 7.7 km/h 18.2 km/h 94 % 0 mm
07:02 -15.6 °C -16.1 °C 34510.1 hPa West 10.3 km/h 23.3 km/h 94 % 0 mm
07:12 -15.5 °C -16.1 °C 34510.1 hPa West 7.7 km/h 20.8 km/h 93 % 0 mm
07:17 -15.5 °C -16.1 °C 34510.1 hPa West 15.6 km/h 20.8 km/h 93 % 0 mm
07:27 -15.5 °C -16.1 °C 34520.3 hPa West 15.6 km/h 23.3 km/h 93 % 0 mm
07:37 -15.4 °C -16.1 °C 34510.1 hPa West 15.6 km/h 33.6 km/h 92 % 0 mm
07:42 -15.4 °C -16.1 °C 34510.1 hPa West 7.7 km/h 33.6 km/h 91 % 0 mm
07:47 -15.4 °C -16.1 °C 34510.1 hPa West 10.3 km/h 33.6 km/h 91 % 0 mm
08:07 -15.4 °C -16.3 °C 34510.1 hPa West 12.9 km/h 31.1 km/h 90 % 0 mm
08:12 -15.5 °C -16.2 °C 34510.1 hPa WSW 25.9 km/h 31.1 km/h 91 % 0 mm
08:22 -15.5 °C -16.2 °C 34520.3 hPa West 18.2 km/h 28.5 km/h 92 % 0 mm
08:27 -15.4 °C -16.1 °C 34520.3 hPa West 25.9 km/h 33.6 km/h 92 % 0 mm
08:37 -15.3 °C -16 °C 34520.3 hPa West 20.8 km/h 36.2 km/h 92 % 0 mm
08:47 -15.3 °C -16.1 °C 34520.3 hPa West 20.8 km/h 36.2 km/h 91 % 0 mm
08:52 -15.4 °C -16.1 °C 34520.3 hPa WSW 10.3 km/h 31.1 km/h 92 % 0 mm
08:57 -15.4 °C -16.1 °C 34520.3 hPa West 12.9 km/h 31.1 km/h 92 % 0 mm
09:02 -15.4 °C -16.1 °C 34510.1 hPa WSW 10.3 km/h 31.1 km/h 92 % 0 mm
09:12 -15.6 °C -16.3 °C 34533.8 hPa West 7.7 km/h 28.5 km/h 92 % 0 mm
09:17 -15.6 °C -16.2 °C 34533.8 hPa WSW 7.7 km/h 23.3 km/h 93 % 0 mm
09:32 -15.4 °C -16.1 °C 34533.8 hPa WNW 18.2 km/h 25.9 km/h 91 % 0 mm
09:42 -15.2 °C -15.9 °C 34544 hPa WNW 15.6 km/h 36.2 km/h 91 % 0 mm
09:47 -15.1 °C -15.9 °C 34544 hPa WNW 28.5 km/h 44.1 km/h 90 % 0 mm
09:52 -15 °C -15.8 °C 34544 hPa WNW 10.3 km/h 51.8 km/h 90 % 0 mm
09:57 -15.1 °C -15.9 °C 34544 hPa West 18.2 km/h 51.8 km/h 90 % 0 mm
10:02 -15.1 °C -15.9 °C 34554.1 hPa WNW 31.1 km/h 51.8 km/h 90 % 0 mm
10:12 -15.2 °C -15.9 °C 34544 hPa West 15.6 km/h 46.7 km/h 91 % 0 mm
10:17 -15.3 °C -16.1 °C 34544 hPa West 12.9 km/h 41.4 km/h 90 % 7.62 mm
10:27 -15.3 °C -16.1 °C 34544 hPa West 15.6 km/h 36.2 km/h 90 % 7.62 mm
10:32 -15.3 °C -16.2 °C 34554.1 hPa West 20.8 km/h 36.2 km/h 89 % 7.62 mm
10:42 -15.2 °C -16.2 °C 34554.1 hPa West 15.6 km/h 28.5 km/h 88 % 7.62 mm
10:52 -15.1 °C -16.1 °C 34554.1 hPa West 5.1 km/h 28.5 km/h 89 % 7.62 mm
10:57 -15 °C -15.9 °C 34567.7 hPa West 18.2 km/h 25.9 km/h 89 % 7.62 mm
11:02 -14.9 °C -15.8 °C 34567.7 hPa WNW 10.3 km/h 25.9 km/h 89 % 7.62 mm
11:12 -14.8 °C -15.8 °C 34567.7 hPa West 10.3 km/h 31.1 km/h 88 % 0 mm
11:27 -14.8 °C -15.9 °C 34577.8 hPa West 15.6 km/h 46.7 km/h 87 % 0 mm
11:32 -14.8 °C -16 °C 34577.8 hPa West 23.3 km/h 46.7 km/h 86 % 0 mm
11:42 -14.7 °C -16.1 °C 34567.7 hPa WNW 12.9 km/h 33.6 km/h 84 % 0 mm
11:47 -14.6 °C -15.8 °C 34567.7 hPa West 23.3 km/h 33.6 km/h 86 % 0 mm
11:57 -14.6 °C -16 °C 34567.7 hPa WNW 10.3 km/h 38.8 km/h 84 % 0 mm
12:02 -14.6 °C -16.1 °C 34567.7 hPa SW 15.6 km/h 38.8 km/h 83 % 0 mm
12:12 -14.6 °C -16.1 °C 34567.7 hPa WSW 23.3 km/h 44.1 km/h 83 % 0 mm
12:17 -14.6 °C -16.1 °C 34567.7 hPa West 20.8 km/h 44.1 km/h 83 % 0 mm
12:22 -14.7 °C -16.2 °C 34567.7 hPa WSW 28.5 km/h 44.1 km/h 82 % 0 mm
12:32 -14.6 °C -16.4 °C 34554.1 hPa West 23.3 km/h 44.1 km/h 80 % 0 mm
12:42 -14.6 °C -16.3 °C 34554.1 hPa West 28.5 km/h 46.7 km/h 80 % 0 mm
12:47 -14.6 °C -16.2 °C 34554.1 hPa WSW 18.2 km/h 46.7 km/h 81 % 0 mm
12:52 -14.6 °C -16.4 °C 34554.1 hPa WNW 33.6 km/h 46.7 km/h 80 % 0 mm
13:02 -14.6 °C -16.3 °C 34554.1 hPa West 12.9 km/h 46.7 km/h 81 % 0 mm
13:07 -14.6 °C -16.3 °C 34554.1 hPa WNW 25.9 km/h 46.7 km/h 80 % 0 mm
13:12 -14.6 °C -16.4 °C 34554.1 hPa WNW 23.3 km/h 46.7 km/h 79 % 0 mm
13:17 -14.5 °C -16.6 °C 34554.1 hPa NW 33.6 km/h 46.7 km/h 77 % 0 mm
13:22 -14.6 °C -16.5 °C 34554.1 hPa West 31.1 km/h 46.7 km/h 78 % 0 mm
13:27 -14.5 °C -16.4 °C 34554.1 hPa West 23.3 km/h 46.7 km/h 78 % 0 mm
13:37 -14.4 °C -16.7 °C 34544 hPa West 25.9 km/h 49.2 km/h 75 % 0 mm
13:42 -14.4 °C -16.6 °C 34544 hPa West 28.5 km/h 51.8 km/h 76 % 0 mm
13:52 -14.6 °C -17.2 °C 34544 hPa West 28.5 km/h 57 km/h 72 % 0 mm
13:57 -14.6 °C -17.2 °C 34533.8 hPa West 18.2 km/h 57 km/h 72 % 0 mm
14:02 -14.7 °C -17.2 °C 34544 hPa NW 36.2 km/h 57 km/h 72 % 0 mm
14:12 -14.7 °C -17.2 °C 34544 hPa WSW 15.6 km/h 46.7 km/h 73 % 0 mm
14:22 -14.7 °C -17.3 °C 34544 hPa West 44.1 km/h 49.2 km/h 71 % 0 mm
14:27 -14.7 °C -17.2 °C 34544 hPa West 44.1 km/h 49.2 km/h 72 % 0 mm
14:42 -14.6 °C -17.2 °C 34533.8 hPa West 10.3 km/h 49.2 km/h 72 % 0 mm
14:57 -14.5 °C -17.1 °C 34533.8 hPa WSW 12.9 km/h 44.1 km/h 72 % 0 mm
15:12 -14.6 °C -17.3 °C 34533.8 hPa West 20.8 km/h 41.4 km/h 71 % 0 mm
15:22 -14.7 °C -17.2 °C 34533.8 hPa West 15.6 km/h 38.8 km/h 73 % 0 mm
15:27 -14.6 °C -17.2 °C 34533.8 hPa WNW 25.9 km/h 41.4 km/h 72 % 0 mm
15:32 -14.6 °C -17.3 °C 34533.8 hPa WNW 18.2 km/h 41.4 km/h 71 % 0 mm
15:42 -14.7 °C -17.4 °C 34520.3 hPa WNW 23.3 km/h 54.4 km/h 71 % 0 mm
15:47 -14.8 °C -17.3 °C 34533.8 hPa West 23.3 km/h 54.4 km/h 73 % 0 mm
15:52 -14.8 °C -17.4 °C 34533.8 hPa WNW 41.4 km/h 54.4 km/h 72 % 0 mm
16:07 -15.6 °C -17.6 °C 34533.8 hPa WNW 23.3 km/h 85.5 km/h 78 % 0 mm
16:12 -15.7 °C -17.7 °C 34533.8 hPa West 23.3 km/h 85.5 km/h 78 % 0 mm
16:17 -15.7 °C -17.6 °C 34533.8 hPa WNW 18.2 km/h 64.7 km/h 79 % 0 mm
16:42 -15.7 °C -17.3 °C 34533.8 hPa WNW 12.9 km/h 18.2 km/h 81 % 0 mm
17:02 -16.5 °C -17.7 °C 34554.1 hPa NW 25.9 km/h 49.2 km/h 86 % 0 mm
17:07 -17 °C -17.9 °C 34567.7 hPa WNW 20.8 km/h 67.3 km/h 89 % 0 mm
17:17 -17.2 °C -17.7 °C 34567.7 hPa NW 10.3 km/h 67.3 km/h 93 % 0 mm
17:22 -17.2 °C -17.7 °C 34567.7 hPa NNW 7.7 km/h 28.5 km/h 93 % 0 mm
17:27 -17.2 °C -17.7 °C 34567.7 hPa WNW 7.7 km/h 28.5 km/h 93 % 0 mm
17:32 -17.2 °C -17.7 °C 34567.7 hPa WNW 10.3 km/h 28.5 km/h 93 % 0 mm
17:42 -17.2 °C -17.7 °C 34567.7 hPa WNW 18.2 km/h 31.1 km/h 93 % 0 mm
17:47 -17.1 °C -17.7 °C 34567.7 hPa WNW 10.3 km/h 31.1 km/h 93 % 0 mm
17:57 -17.1 °C -17.7 °C 34567.7 hPa WNW 5.1 km/h 28.5 km/h 92 % 0 mm
18:07 -17.1 °C -17.7 °C 34567.7 hPa West 15.6 km/h 25.9 km/h 92 % 0 mm
18:12 -17 °C -17.7 °C 34567.7 hPa NW 10.3 km/h 25.9 km/h 91 % 0 mm
18:17 -16.9 °C -17.7 °C 34567.7 hPa West 15.6 km/h 23.3 km/h 91 % 0 mm
18:22 -16.9 °C -17.7 °C 34567.7 hPa West 12.9 km/h 23.3 km/h 90 % 0 mm
18:27 -16.9 °C -17.7 °C 34567.7 hPa West 18.2 km/h 28.5 km/h 90 % 0 mm
18:32 -16.9 °C -17.7 °C 34567.7 hPa WNW 5.1 km/h 28.5 km/h 90 % 0 mm
18:42 -16.9 °C -17.7 °C 34567.7 hPa West 7.7 km/h 23.3 km/h 90 % 0 mm
18:57 -16.9 °C -17.6 °C 34577.8 hPa WNW 23.3 km/h 23.3 km/h 91 % 0 mm
19:02 -16.9 °C -17.6 °C 34577.8 hPa WNW 25.9 km/h 51.8 km/h 91 % 0 mm
19:12 -16.9 °C -17.6 °C 34577.8 hPa WNW 23.3 km/h 51.8 km/h 91 % 7.62 mm
19:17 -16.9 °C -17.6 °C 34577.8 hPa West 18.2 km/h 46.7 km/h 91 % 12.7 mm
19:27 -16.9 °C -17.7 °C 34577.8 hPa West 10.3 km/h 46.7 km/h 90 % 12.7 mm
19:32 -16.9 °C -17.6 °C 34577.8 hPa WNW 12.9 km/h 31.1 km/h 91 % 12.7 mm
19:47 -17.1 °C -17.8 °C 34591.4 hPa WSW 12.9 km/h 28.5 km/h 91 % 12.7 mm
19:57 -17.1 °C -17.8 °C 34591.4 hPa West 23.3 km/h 31.1 km/h 91 % 12.7 mm
20:07 -17.1 °C -17.8 °C 34591.4 hPa WSW 20.8 km/h 31.1 km/h 91 % 12.7 mm
20:12 -17.1 °C -17.8 °C 34591.4 hPa WSW 12.9 km/h 31.1 km/h 91 % 7.62 mm
20:22 -17.1 °C -17.9 °C 34591.4 hPa WNW 18.2 km/h 28.5 km/h 90 % 0 mm
20:27 -17 °C -17.9 °C 34591.4 hPa WNW 15.6 km/h 33.6 km/h 89 % 0 mm
20:32 -17 °C -17.9 °C 34591.4 hPa NW 10.3 km/h 36.2 km/h 89 % 0 mm
20:37 -17 °C -17.9 °C 34591.4 hPa West 23.3 km/h 36.2 km/h 89 % 0 mm
20:47 -17.1 °C -17.9 °C 34591.4 hPa West 5.1 km/h 31.1 km/h 89 % 0 mm
20:52 -17.1 °C -17.9 °C 34591.4 hPa WNW 7.7 km/h 23.3 km/h 90 % 0 mm
20:57 -17.1 °C -17.9 °C 34591.4 hPa West 10.3 km/h 23.3 km/h 90 % 0 mm
21:02 -17.1 °C -17.9 °C 34591.4 hPa West 12.9 km/h 23.3 km/h 90 % 0 mm
21:12 -17.1 °C -17.8 °C 34601.5 hPa WNW 7.7 km/h 38.8 km/h 91 % 0 mm
21:17 -17.1 °C -17.8 °C 34601.5 hPa WNW 18.2 km/h 38.8 km/h 91 % 0 mm
21:22 -17.1 °C -17.8 °C 34601.5 hPa NNW 12.9 km/h 38.8 km/h 91 % 0 mm
21:27 -17.1 °C -17.8 °C 34601.5 hPa West 25.9 km/h 38.8 km/h 91 % 0 mm
21:37 -17.1 °C -17.8 °C 34601.5 hPa West 20.8 km/h 38.8 km/h 91 % 0 mm
21:42 -17.1 °C -17.8 °C 34601.5 hPa WNW 23.3 km/h 38.8 km/h 91 % 0 mm
21:47 -17.1 °C -17.8 °C 34601.5 hPa West 18.2 km/h 33.6 km/h 91 % 0 mm
21:57 -17 °C -17.7 °C 34601.5 hPa WNW 15.6 km/h 33.6 km/h 91 % 0 mm
22:12 -17.1 °C -17.9 °C 34591.4 hPa WNW 23.3 km/h 44.1 km/h 90 % 0 mm
22:22 -17.1 °C -17.9 °C 34591.4 hPa WNW 18.2 km/h 44.1 km/h 90 % 0 mm
22:27 -17.1 °C -17.9 °C 34591.4 hPa West 12.9 km/h 36.2 km/h 90 % 0 mm
22:37 -17.1 °C -17.9 °C 34591.4 hPa WNW 10.3 km/h 31.1 km/h 90 % 0 mm
22:42 -17.1 °C -17.9 °C 34601.5 hPa West 12.9 km/h 33.6 km/h 90 % 0 mm
22:52 -17.2 °C -18 °C 34591.4 hPa NW 7.7 km/h 25.9 km/h 90 % 0 mm
22:57 -17.2 °C -18 °C 34591.4 hPa WNW 25.9 km/h 25.9 km/h 90 % 0 mm
23:02 -17.2 °C -18 °C 34591.4 hPa NW 12.9 km/h 36.2 km/h 90 % 0 mm
23:12 -17.2 °C -18 °C 34591.4 hPa West 25.9 km/h 36.2 km/h 90 % 0 mm
23:17 -17.2 °C -18.1 °C 34591.4 hPa West 12.9 km/h 36.2 km/h 90 % 0 mm
23:22 -17.3 °C -18 °C 34591.4 hPa WNW 12.9 km/h 33.6 km/h 91 % 0 mm
23:32 -17.3 °C -18.1 °C 34601.5 hPa WNW 28.5 km/h 28.5 km/h 91 % 0 mm
23:37 -17.3 °C -18.1 °C 34601.5 hPa WNW 5.1 km/h 33.6 km/h 91 % 0 mm
23:42 -17.3 °C -18 °C 34601.5 hPa SW 7.7 km/h 33.6 km/h 92 % 0 mm
23:47 -17.3 °C -18 °C 34611.7 hPa WNW 7.7 km/h 31.1 km/h 92 % 0 mm
23:52 -17.3 °C -18 °C 34611.7 hPa West 28.5 km/h 28.5 km/h 92 % 0 mm
23:57 -17.3 °C -17.9 °C 34601.5 hPa WNW 18.2 km/h 31.1 km/h 92 % 0 mm
Meteo18
Compliments of Weather Underground - 4 mb

Script developed by  Jim McMurry - jmcmurry@mwt.net Adapted for the template by  Wim van der Kuil - Leuven-Template.eu

You find our weather info also at:

European Weather Network

Weather Underground

Equipment we use:

Weather-station
Davis Vue

Weather-program
Meteobridge

Weather-server
Raspberry PI 2 B+

Provider
1 and 1

Davis Vue

Meteobridge

Raspberry PI 2 B+

1 and 1